In Rescue
 
Open Full Screen Window  High Contrast Mode
Wind Gusting 16 knots
10
November 29, 2022 9:49 AM CST
Present Weather: Snow
Weather Information
Wind Direction
  350 °
Wind Speed
  10 kt (12 mph)
Wind Gust
  16 kt (18 mph)
Altimeter
29.65 in
Visibility
1/2 SM
Temperature
-03° C
27° F
Dewpoint
-04° C
25° F
Humidity
93%
1hr Rain Fall
00.01 in.
24hr Rain Fall
00.04 in.
Sky Condition
Overcast @ 600 ft
IFR

METAR KLVN 291549Z AUTO 35010G16KT 1/2SM SN OVC006 M03/M04 A2965 RMK AO2 P0001

FAA Disclaimer: The data displayed is for advisory purposes only and is not to be used for flight planning or operations.